sensor_id;sensor_type;location;lat;lon;timestamp;temperature;humidity
8593;DHT22;4334;49.982;8.398;2023-03-23T00:00:06;13.60;99.90
8593;DHT22;4334;49.982;8.398;2023-03-23T00:02:34;13.60;99.90
8593;DHT22;4334;49.982;8.398;2023-03-23T00:05:04;13.70;99.90
8593;DHT22;4334;49.982;8.398;2023-03-23T00:07:32;13.80;99.90
8593;DHT22;4334;49.982;8.398;2023-03-23T00:09:59;13.80;99.90
8593;DHT22;4334;49.982;8.398;2023-03-23T00:12:31;13.70;99.90
8593;DHT22;4334;49.982;8.398;2023-03-23T00:15:00;13.70;99.90
8593;DHT22;4334;49.982;8.398;2023-03-23T00:17:27;13.70;99.90
8593;DHT22;4334;49.982;8.398;2023-03-23T00:19:54;13.60;99.90
8593;DHT22;4334;49.982;8.398;2023-03-23T00:22:21;13.70;99.90
8593;DHT22;4334;49.982;8.398;2023-03-23T00:24:51;13.60;99.90
8593;DHT22;4334;49.982;8.398;2023-03-23T00:27:18;13.60;99.90
8593;DHT22;4334;49.982;8.398;2023-03-23T00:29:49;13.60;99.90
8593;DHT22;4334;49.982;8.398;2023-03-23T00:32:18;13.60;99.90
8593;DHT22;4334;49.982;8.398;2023-03-23T00:34:46;13.50;99.90
8593;DHT22;4334;49.982;8.398;2023-03-23T00:37:15;13.50;99.90
8593;DHT22;4334;49.982;8.398;2023-03-23T00:39:43;13.60;99.90
8593;DHT22;4334;49.982;8.398;2023-03-23T00:42:13;13.60;99.90
8593;DHT22;4334;49.982;8.398;2023-03-23T00:44:39;13.60;99.90
8593;DHT22;4334;49.982;8.398;2023-03-23T00:47:07;13.60;99.90
8593;DHT22;4334;49.982;8.398;2023-03-23T00:49:36;13.60;99.90
8593;DHT22;4334;49.982;8.398;2023-03-23T00:52:04;13.60;99.90
8593;DHT22;4334;49.982;8.398;2023-03-23T00:54:32;13.60;99.90
8593;DHT22;4334;49.982;8.398;2023-03-23T00:56:59;13.70;99.90
8593;DHT22;4334;49.982;8.398;2023-03-23T00:59:26;13.70;99.90
8593;DHT22;4334;49.982;8.398;2023-03-23T01:01:53;13.70;99.90
8593;DHT22;4334;49.982;8.398;2023-03-23T01:04:21;13.70;99.90
8593;DHT22;4334;49.982;8.398;2023-03-23T01:06:50;13.60;99.90
8593;DHT22;4334;49.982;8.398;2023-03-23T01:09:18;13.70;99.90
8593;DHT22;4334;49.982;8.398;2023-03-23T01:11:47;15.80;99.90
8593;DHT22;4334;49.982;8.398;2023-03-23T01:14:16;13.60;99.90
8593;DHT22;4334;49.982;8.398;2023-03-23T01:16:44;13.60;99.90
8593;DHT22;4334;49.982;8.398;2023-03-23T01:19:11;13.60;99.90
8593;DHT22;4334;49.982;8.398;2023-03-23T01:21:40;13.60;99.90
8593;DHT22;4334;49.982;8.398;2023-03-23T01:24:07;13.70;99.90
8593;DHT22;4334;49.982;8.398;2023-03-23T01:26:34;13.60;99.90
8593;DHT22;4334;49.982;8.398;2023-03-23T01:29:01;13.60;99.90
8593;DHT22;4334;49.982;8.398;2023-03-23T01:31:28;13.60;99.90
8593;DHT22;4334;49.982;8.398;2023-03-23T01:33:55;13.60;99.90
8593;DHT22;4334;49.982;8.398;2023-03-23T01:36:24;13.70;99.90
8593;DHT22;4334;49.982;8.398;2023-03-23T01:38:53;13.70;99.90
8593;DHT22;4334;49.982;8.398;2023-03-23T01:41:21;13.70;99.90
8593;DHT22;4334;49.982;8.398;2023-03-23T01:43:55;13.60;99.90
8593;DHT22;4334;49.982;8.398;2023-03-23T01:46:24;13.70;99.90
8593;DHT22;4334;49.982;8.398;2023-03-23T01:48:51;13.70;99.90
8593;DHT22;4334;49.982;8.398;2023-03-23T01:51:20;13.70;99.90
8593;DHT22;4334;49.982;8.398;2023-03-23T01:53:50;13.70;99.90
8593;DHT22;4334;49.982;8.398;2023-03-23T01:56:22;17.00;99.90
8593;DHT22;4334;49.982;8.398;2023-03-23T01:58:52;14.00;99.90
8593;DHT22;4334;49.982;8.398;2023-03-23T02:01:19;14.00;99.90
8593;DHT22;4334;49.982;8.398;2023-03-23T02:03:53;14.10;99.90
8593;DHT22;4334;49.982;8.398;2023-03-23T02:06:21;14.10;99.90
8593;DHT22;4334;49.982;8.398;2023-03-23T02:08:49;14.10;99.90
8593;DHT22;4334;49.982;8.398;2023-03-23T02:11:18;14.80;99.90
8593;DHT22;4334;49.982;8.398;2023-03-23T02:13:47;13.90;99.90
8593;DHT22;4334;49.982;8.398;2023-03-23T02:16:20;13.80;99.90
8593;DHT22;4334;49.982;8.398;2023-03-23T02:18:57;15.00;99.90
8593;DHT22;4334;49.982;8.398;2023-03-23T02:30:40;13.70;99.90
8593;DHT22;4334;49.982;8.398;2023-03-23T02:33:38;13.60;99.90
8593;DHT22;4334;49.982;8.398;2023-03-23T02:36:13;13.50;99.90
8593;DHT22;4334;49.982;8.398;2023-03-23T02:38:44;13.30;99.90
8593;DHT22;4334;49.982;8.398;2023-03-23T02:41:18;13.10;99.90
8593;DHT22;4334;49.982;8.398;2023-03-23T02:43:48;14.90;99.90
8593;DHT22;4334;49.982;8.398;2023-03-23T02:46:16;12.50;99.90
8593;DHT22;4334;49.982;8.398;2023-03-23T02:48:46;12.20;99.90
8593;DHT22;4334;49.982;8.398;2023-03-23T02:51:15;12.00;99.90
8593;DHT22;4334;49.982;8.398;2023-03-23T02:53:46;12.00;99.90
8593;DHT22;4334;49.982;8.398;2023-03-23T02:56:15;11.90;99.90
8593;DHT22;4334;49.982;8.398;2023-03-23T02:58:42;11.80;99.90
8593;DHT22;4334;49.982;8.398;2023-03-23T03:01:47;11.70;99.90
8593;DHT22;4334;49.982;8.398;2023-03-23T03:04:19;11.60;99.90
8593;DHT22;4334;49.982;8.398;2023-03-23T03:06:54;11.50;99.90
8593;DHT22;4334;49.982;8.398;2023-03-23T03:09:33;11.50;99.90
8593;DHT22;4334;49.982;8.398;2023-03-23T03:12:10;11.50;99.90
8593;DHT22;4334;49.982;8.398;2023-03-23T03:14:43;11.60;99.90
8593;DHT22;4334;49.982;8.398;2023-03-23T03:17:19;15.40;99.90
8593;DHT22;4334;49.982;8.398;2023-03-23T03:19:50;11.50;99.90
8593;DHT22;4334;49.982;8.398;2023-03-23T03:22:19;11.60;99.90
8593;DHT22;4334;49.982;8.398;2023-03-23T03:24:47;11.60;99.90
8593;DHT22;4334;49.982;8.398;2023-03-23T03:27:17;12.10;99.90
8593;DHT22;4334;49.982;8.398;2023-03-23T03:29:46;11.60;99.90
8593;DHT22;4334;49.982;8.398;2023-03-23T03:32:18;11.60;99.90
8593;DHT22;4334;49.982;8.398;2023-03-23T03:34:48;11.60;99.90
8593;DHT22;4334;49.982;8.398;2023-03-23T03:37:16;11.60;99.90
8593;DHT22;4334;49.982;8.398;2023-03-23T03:39:44;11.60;99.90
8593;DHT22;4334;49.982;8.398;2023-03-23T03:42:11;11.50;99.90
8593;DHT22;4334;49.982;8.398;2023-03-23T03:44:38;11.50;99.90
8593;DHT22;4334;49.982;8.398;2023-03-23T03:47:04;11.50;99.90
8593;DHT22;4334;49.982;8.398;2023-03-23T03:49:31;11.40;99.90
8593;DHT22;4334;49.982;8.398;2023-03-23T03:52:00;11.40;99.90
8593;DHT22;4334;49.982;8.398;2023-03-23T03:54:27;11.60;99.90
8593;DHT22;4334;49.982;8.398;2023-03-23T03:56:53;12.50;99.90
8593;DHT22;4334;49.982;8.398;2023-03-23T03:59:23;11.50;99.90
8593;DHT22;4334;49.982;8.398;2023-03-23T04:01:51;11.40;99.90
8593;DHT22;4334;49.982;8.398;2023-03-23T04:04:19;11.40;99.90
8593;DHT22;4334;49.982;8.398;2023-03-23T04:06:47;11.50;99.90
8593;DHT22;4334;49.982;8.398;2023-03-23T04:09:16;11.40;99.90
8593;DHT22;4334;49.982;8.398;2023-03-23T04:11:42;13.50;99.90
8593;DHT22;4334;49.982;8.398;2023-03-23T04:14:09;11.60;99.90
8593;DHT22;4334;49.982;8.398;2023-03-23T04:16:36;11.60;99.90
8593;DHT22;4334;49.982;8.398;2023-03-23T04:19:03;11.60;99.90
8593;DHT22;4334;49.982;8.398;2023-03-23T04:21:31;11.70;99.90
8593;DHT22;4334;49.982;8.398;2023-03-23T04:23:58;11.80;99.90
8593;DHT22;4334;49.982;8.398;2023-03-23T04:26:27;11.80;99.90
8593;DHT22;4334;49.982;8.398;2023-03-23T04:28:55;11.90;99.90
8593;DHT22;4334;49.982;8.398;2023-03-23T04:31:22;12.00;99.90
8593;DHT22;4334;49.982;8.398;2023-03-23T04:33:50;13.70;99.90
8593;DHT22;4334;49.982;8.398;2023-03-23T04:36:19;12.20;99.90
8593;DHT22;4334;49.982;8.398;2023-03-23T04:38:48;15.50;99.90
8593;DHT22;4334;49.982;8.398;2023-03-23T04:41:20;12.90;99.90
8593;DHT22;4334;49.982;8.398;2023-03-23T04:43:48;13.10;99.90
8593;DHT22;4334;49.982;8.398;2023-03-23T04:46:18;13.10;99.90
8593;DHT22;4334;49.982;8.398;2023-03-23T04:48:47;16.20;99.90
8593;DHT22;4334;49.982;8.398;2023-03-23T04:51:14;13.20;99.90
8593;DHT22;4334;49.982;8.398;2023-03-23T04:53:40;13.10;99.90
8593;DHT22;4334;49.982;8.398;2023-03-23T04:56:07;13.10;99.90
8593;DHT22;4334;49.982;8.398;2023-03-23T04:58:34;13.10;99.90
8593;DHT22;4334;49.982;8.398;2023-03-23T05:01:02;13.10;99.90
8593;DHT22;4334;49.982;8.398;2023-03-23T05:03:30;13.10;99.90
8593;DHT22;4334;49.982;8.398;2023-03-23T05:05:57;13.10;99.90
8593;DHT22;4334;49.982;8.398;2023-03-23T05:08:24;13.10;99.90
8593;DHT22;4334;49.982;8.398;2023-03-23T05:10:51;13.20;99.90
8593;DHT22;4334;49.982;8.398;2023-03-23T05:13:18;13.30;99.90
8593;DHT22;4334;49.982;8.398;2023-03-23T05:15:45;13.40;99.90
8593;DHT22;4334;49.982;8.398;2023-03-23T05:18:14;13.30;99.90
8593;DHT22;4334;49.982;8.398;2023-03-23T05:20:41;13.30;99.90
8593;DHT22;4334;49.982;8.398;2023-03-23T05:23:08;13.40;99.90
8593;DHT22;4334;49.982;8.398;2023-03-23T05:25:36;13.30;99.90
8593;DHT22;4334;49.982;8.398;2023-03-23T05:28:06;13.30;99.90
8593;DHT22;4334;49.982;8.398;2023-03-23T05:30:33;13.20;99.90
8593;DHT22;4334;49.982;8.398;2023-03-23T05:33:00;13.20;99.90
8593;DHT22;4334;49.982;8.398;2023-03-23T05:35:30;13.10;99.90
8593;DHT22;4334;49.982;8.398;2023-03-23T05:37:57;16.40;99.90
8593;DHT22;4334;49.982;8.398;2023-03-23T05:40:24;13.00;99.90
8593;DHT22;4334;49.982;8.398;2023-03-23T05:42:52;12.90;99.90
8593;DHT22;4334;49.982;8.398;2023-03-23T05:45:21;13.00;99.90
8593;DHT22;4334;49.982;8.398;2023-03-23T05:47:48;12.90;99.90
8593;DHT22;4334;49.982;8.398;2023-03-23T05:50:15;12.90;99.90
8593;DHT22;4334;49.982;8.398;2023-03-23T05:52:44;12.80;99.90
8593;DHT22;4334;49.982;8.398;2023-03-23T05:55:11;12.80;99.90
8593;DHT22;4334;49.982;8.398;2023-03-23T05:57:39;12.70;99.90
8593;DHT22;4334;49.982;8.398;2023-03-23T06:00:06;12.70;99.90
8593;DHT22;4334;49.982;8.398;2023-03-23T06:02:44;12.60;99.90
8593;DHT22;4334;49.982;8.398;2023-03-23T06:05:11;12.60;99.90
8593;DHT22;4334;49.982;8.398;2023-03-23T06:07:39;12.60;99.90
8593;DHT22;4334;49.982;8.398;2023-03-23T06:10:09;12.60;99.90
8593;DHT22;4334;49.982;8.398;2023-03-23T06:12:36;12.50;99.90
8593;DHT22;4334;49.982;8.398;2023-03-23T06:15:03;12.60;99.90
8593;DHT22;4334;49.982;8.398;2023-03-23T06:17:32;12.60;99.90
8593;DHT22;4334;49.982;8.398;2023-03-23T06:19:59;12.60;99.90
8593;DHT22;4334;49.982;8.398;2023-03-23T06:22:26;12.60;99.90
8593;DHT22;4334;49.982;8.398;2023-03-23T06:24:53;12.60;99.90
8593;DHT22;4334;49.982;8.398;2023-03-23T06:27:24;12.60;99.90
8593;DHT22;4334;49.982;8.398;2023-03-23T06:29:51;12.70;99.90
8593;DHT22;4334;49.982;8.398;2023-03-23T06:32:18;12.70;99.90
8593;DHT22;4334;49.982;8.398;2023-03-23T06:34:45;11.10;99.90
8593;DHT22;4334;49.982;8.398;2023-03-23T06:37:13;12.70;99.90
8593;DHT22;4334;49.982;8.398;2023-03-23T06:39:41;12.80;99.90
8593;DHT22;4334;49.982;8.398;2023-03-23T06:42:09;12.90;99.90
8593;DHT22;4334;49.982;8.398;2023-03-23T06:44:38;12.90;99.90
8593;DHT22;4334;49.982;8.398;2023-03-23T06:47:05;12.90;99.90
8593;DHT22;4334;49.982;8.398;2023-03-23T06:49:33;12.90;99.90
8593;DHT22;4334;49.982;8.398;2023-03-23T06:52:00;12.90;99.90
8593;DHT22;4334;49.982;8.398;2023-03-23T06:54:27;13.00;99.90
8593;DHT22;4334;49.982;8.398;2023-03-23T06:56:57;13.10;99.90
8593;DHT22;4334;49.982;8.398;2023-03-23T06:59:24;13.10;99.90
8593;DHT22;4334;49.982;8.398;2023-03-23T07:01:53;13.10;99.90
8593;DHT22;4334;49.982;8.398;2023-03-23T07:04:19;13.20;99.90
8593;DHT22;4334;49.982;8.398;2023-03-23T07:06:46;13.20;99.90
8593;DHT22;4334;49.982;8.398;2023-03-23T07:09:13;13.20;99.90
8593;DHT22;4334;49.982;8.398;2023-03-23T07:11:40;16.60;99.90
8593;DHT22;4334;49.982;8.398;2023-03-23T07:14:09;13.30;99.90
8593;DHT22;4334;49.982;8.398;2023-03-23T07:16:36;13.30;99.90
8593;DHT22;4334;49.982;8.398;2023-03-23T07:19:04;13.20;99.90
8593;DHT22;4334;49.982;8.398;2023-03-23T07:21:31;13.20;99.90
8593;DHT22;4334;49.982;8.398;2023-03-23T07:24:01;13.20;99.90
8593;DHT22;4334;49.982;8.398;2023-03-23T07:26:28;13.10;99.90
8593;DHT22;4334;49.982;8.398;2023-03-23T07:28:55;13.10;99.90
8593;DHT22;4334;49.982;8.398;2023-03-23T07:31:21;13.10;99.90
8593;DHT22;4334;49.982;8.398;2023-03-23T07:33:48;13.00;99.90
8593;DHT22;4334;49.982;8.398;2023-03-23T07:36:16;13.00;99.90
8593;DHT22;4334;49.982;8.398;2023-03-23T07:38:44;13.10;99.90
8593;DHT22;4334;49.982;8.398;2023-03-23T07:41:11;15.30;99.90
8593;DHT22;4334;49.982;8.398;2023-03-23T07:43:38;13.10;99.90
8593;DHT22;4334;49.982;8.398;2023-03-23T07:46:05;16.70;99.90
8593;DHT22;4334;49.982;8.398;2023-03-23T07:48:31;13.20;99.90
8593;DHT22;4334;49.982;8.398;2023-03-23T07:50:58;13.30;99.90
8593;DHT22;4334;49.982;8.398;2023-03-23T07:53:27;13.30;99.90
8593;DHT22;4334;49.982;8.398;2023-03-23T07:55:54;13.40;99.90
8593;DHT22;4334;49.982;8.398;2023-03-23T07:58:21;13.40;99.90
8593;DHT22;4334;49.982;8.398;2023-03-23T08:00:48;13.50;99.90
8593;DHT22;4334;49.982;8.398;2023-03-23T08:03:15;13.50;99.90
8593;DHT22;4334;49.982;8.398;2023-03-23T08:05:43;13.60;99.90
8593;DHT22;4334;49.982;8.398;2023-03-23T08:08:10;13.60;99.90
8593;DHT22;4334;49.982;8.398;2023-03-23T08:10:39;13.80;99.90
8593;DHT22;4334;49.982;8.398;2023-03-23T08:13:06;13.70;99.90
8593;DHT22;4334;49.982;8.398;2023-03-23T08:15:34;13.70;99.90
8593;DHT22;4334;49.982;8.398;2023-03-23T08:18:03;13.60;99.90
8593;DHT22;4334;49.982;8.398;2023-03-23T08:20:30;13.60;99.90
8593;DHT22;4334;49.982;8.398;2023-03-23T08:22:58;13.60;99.90
8593;DHT22;4334;49.982;8.398;2023-03-23T08:25:25;13.60;99.90
8593;DHT22;4334;49.982;8.398;2023-03-23T08:27:54;13.60;99.90
8593;DHT22;4334;49.982;8.398;2023-03-23T08:30:22;13.60;99.90
8593;DHT22;4334;49.982;8.398;2023-03-23T08:32:50;13.50;99.90
8593;DHT22;4334;49.982;8.398;2023-03-23T08:35:18;13.60;99.90
8593;DHT22;4334;49.982;8.398;2023-03-23T08:37:46;13.60;99.90
8593;DHT22;4334;49.982;8.398;2023-03-23T08:40:17;13.60;99.90
8593;DHT22;4334;49.982;8.398;2023-03-23T08:42:46;13.60;99.90
8593;DHT22;4334;49.982;8.398;2023-03-23T08:45:16;13.70;99.90
8593;DHT22;4334;49.982;8.398;2023-03-23T08:47:44;13.70;99.90
8593;DHT22;4334;49.982;8.398;2023-03-23T08:50:13;13.80;99.90
8593;DHT22;4334;49.982;8.398;2023-03-23T08:52:41;13.90;99.90
8593;DHT22;4334;49.982;8.398;2023-03-23T08:55:09;17.70;99.90
8593;DHT22;4334;49.982;8.398;2023-03-23T08:57:37;14.20;99.90
8593;DHT22;4334;49.982;8.398;2023-03-23T09:00:05;14.40;99.90
8593;DHT22;4334;49.982;8.398;2023-03-23T09:02:41;14.40;99.90
8593;DHT22;4334;49.982;8.398;2023-03-23T09:05:09;14.50;99.90
8593;DHT22;4334;49.982;8.398;2023-03-23T09:07:37;14.60;99.90
8593;DHT22;4334;49.982;8.398;2023-03-23T09:10:06;14.80;99.90
8593;DHT22;4334;49.982;8.398;2023-03-23T09:12:33;14.90;99.90
8593;DHT22;4334;49.982;8.398;2023-03-23T09:15:02;15.00;99.90
8593;DHT22;4334;49.982;8.398;2023-03-23T09:17:35;15.10;99.90
8593;DHT22;4334;49.982;8.398;2023-03-23T09:20:06;18.30;99.90
8593;DHT22;4334;49.982;8.398;2023-03-23T09:22:36;15.10;99.90
8593;DHT22;4334;49.982;8.398;2023-03-23T09:25:04;15.40;99.90
8593;DHT22;4334;49.982;8.398;2023-03-23T09:27:32;15.50;99.90
8593;DHT22;4334;49.982;8.398;2023-03-23T09:29:59;15.80;99.90
8593;DHT22;4334;49.982;8.398;2023-03-23T09:32:26;15.80;99.90
8593;DHT22;4334;49.982;8.398;2023-03-23T09:34:53;18.60;99.90
8593;DHT22;4334;49.982;8.398;2023-03-23T09:37:23;16.10;99.90
8593;DHT22;4334;49.982;8.398;2023-03-23T09:39:50;16.50;99.90
8593;DHT22;4334;49.982;8.398;2023-03-23T09:42:28;18.10;99.90
8593;DHT22;4334;49.982;8.398;2023-03-23T09:45:06;17.00;99.90
8593;DHT22;4334;49.982;8.398;2023-03-23T09:47:41;18.20;99.90
8593;DHT22;4334;49.982;8.398;2023-03-23T09:50:12;17.00;99.90
8593;DHT22;4334;49.982;8.398;2023-03-23T09:52:45;17.90;99.90
8593;DHT22;4334;49.982;8.398;2023-03-23T09:55:14;16.30;99.90
8593;DHT22;4334;49.982;8.398;2023-03-23T09:57:47;15.90;99.90
8593;DHT22;4334;49.982;8.398;2023-03-23T10:00:18;15.70;99.90
8593;DHT22;4334;49.982;8.398;2023-03-23T10:02:52;15.30;99.90
8593;DHT22;4334;49.982;8.398;2023-03-23T10:05:30;14.90;99.90
8593;DHT22;4334;49.982;8.398;2023-03-23T10:08:01;14.70;99.90
8593;DHT22;4334;49.982;8.398;2023-03-23T10:10:34;14.60;99.90
8593;DHT22;4334;49.982;8.398;2023-03-23T10:13:06;14.70;99.90
8593;DHT22;4334;49.982;8.398;2023-03-23T10:15:38;14.60;99.90
8593;DHT22;4334;49.982;8.398;2023-03-23T10:18:13;14.60;99.90
8593;DHT22;4334;49.982;8.398;2023-03-23T10:20:45;14.60;99.90
8593;DHT22;4334;49.982;8.398;2023-03-23T10:23:34;14.60;99.90
8593;DHT22;4334;49.982;8.398;2023-03-23T10:26:08;14.60;99.90
8593;DHT22;4334;49.982;8.398;2023-03-23T10:28:40;14.70;99.90
8593;DHT22;4334;49.982;8.398;2023-03-23T10:31:11;14.80;99.90
8593;DHT22;4334;49.982;8.398;2023-03-23T10:33:41;15.00;99.90
8593;DHT22;4334;49.982;8.398;2023-03-23T10:36:13;14.70;99.90
8593;DHT22;4334;49.982;8.398;2023-03-23T10:38:47;14.70;99.90
8593;DHT22;4334;49.982;8.398;2023-03-23T10:41:17;14.80;99.90
8593;DHT22;4334;49.982;8.398;2023-03-23T10:43:45;14.90;99.90
8593;DHT22;4334;49.982;8.398;2023-03-23T10:46:29;13.40;99.90
8593;DHT22;4334;49.982;8.398;2023-03-23T10:49:02;15.10;99.90
8593;DHT22;4334;49.982;8.398;2023-03-23T10:51:35;15.40;99.90
8593;DHT22;4334;49.982;8.398;2023-03-23T10:54:05;15.60;99.90
8593;DHT22;4334;49.982;8.398;2023-03-23T10:56:36;15.70;99.90
8593;DHT22;4334;49.982;8.398;2023-03-23T10:59:14;16.10;99.90
8593;DHT22;4334;49.982;8.398;2023-03-23T11:01:44;16.10;99.90
8593;DHT22;4334;49.982;8.398;2023-03-23T11:04:14;18.00;99.90
8593;DHT22;4334;49.982;8.398;2023-03-23T11:06:45;16.70;99.90
8593;DHT22;4334;49.982;8.398;2023-03-23T11:09:16;17.00;99.90
8593;DHT22;4334;49.982;8.398;2023-03-23T11:11:49;17.20;99.90
8593;DHT22;4334;49.982;8.398;2023-03-23T11:14:18;16.80;99.90
8593;DHT22;4334;49.982;8.398;2023-03-23T11:16:50;16.60;99.90
8593;DHT22;4334;49.982;8.398;2023-03-23T11:19:22;16.50;99.90
8593;DHT22;4334;49.982;8.398;2023-03-23T11:21:51;16.40;99.90
8593;DHT22;4334;49.982;8.398;2023-03-23T11:24:23;16.30;99.90
8593;DHT22;4334;49.982;8.398;2023-03-23T11:26:52;16.10;99.90
8593;DHT22;4334;49.982;8.398;2023-03-23T11:29:21;15.80;99.90
8593;DHT22;4334;49.982;8.398;2023-03-23T11:31:52;17.40;99.90
8593;DHT22;4334;49.982;8.398;2023-03-23T11:34:22;15.60;99.90
8593;DHT22;4334;49.982;8.398;2023-03-23T11:36:52;15.70;99.90
8593;DHT22;4334;49.982;8.398;2023-03-23T11:39:23;15.50;99.90
8593;DHT22;4334;49.982;8.398;2023-03-23T11:41:50;15.50;99.90
8593;DHT22;4334;49.982;8.398;2023-03-23T11:44:18;15.40;99.90
8593;DHT22;4334;49.982;8.398;2023-03-23T11:46:55;15.20;99.90
8593;DHT22;4334;49.982;8.398;2023-03-23T11:49:32;15.00;99.90
8593;DHT22;4334;49.982;8.398;2023-03-23T11:52:08;15.00;99.90
8593;DHT22;4334;49.982;8.398;2023-03-23T11:54:42;17.70;99.90
8593;DHT22;4334;49.982;8.398;2023-03-23T11:57:11;15.10;99.90
8593;DHT22;4334;49.982;8.398;2023-03-23T11:59:39;15.40;99.90
8593;DHT22;4334;49.982;8.398;2023-03-23T12:02:23;15.60;99.90
8593;DHT22;4334;49.982;8.398;2023-03-23T12:05:10;15.80;99.90
8593;DHT22;4334;49.982;8.398;2023-03-23T12:07:50;15.80;99.90
8593;DHT22;4334;49.982;8.398;2023-03-23T12:10:26;15.60;99.90
8593;DHT22;4334;49.982;8.398;2023-03-23T12:13:16;15.50;99.90
8593;DHT22;4334;49.982;8.398;2023-03-23T12:15:51;15.60;99.90
8593;DHT22;4334;49.982;8.398;2023-03-23T12:18:26;15.90;99.90
8593;DHT22;4334;49.982;8.398;2023-03-23T12:21:03;18.50;99.90
8593;DHT22;4334;49.982;8.398;2023-03-23T12:23:37;16.50;99.90
8593;DHT22;4334;49.982;8.398;2023-03-23T12:26:14;16.60;99.90
8593;DHT22;4334;49.982;8.398;2023-03-23T12:28:59;16.90;99.90
8593;DHT22;4334;49.982;8.398;2023-03-23T12:31:33;17.20;99.90
8593;DHT22;4334;49.982;8.398;2023-03-23T12:34:06;16.60;99.90
8593;DHT22;4334;49.982;8.398;2023-03-23T12:36:48;16.40;99.90
8593;DHT22;4334;49.982;8.398;2023-03-23T12:39:45;16.00;99.90
8593;DHT22;4334;49.982;8.398;2023-03-23T12:42:21;15.90;99.90
8593;DHT22;4334;49.982;8.398;2023-03-23T12:44:53;16.00;99.90
8593;DHT22;4334;49.982;8.398;2023-03-23T12:47:31;16.20;99.90
8593;DHT22;4334;49.982;8.398;2023-03-23T12:50:07;18.90;99.90
8593;DHT22;4334;49.982;8.398;2023-03-23T12:52:44;16.60;99.90
8593;DHT22;4334;49.982;8.398;2023-03-23T12:55:17;16.90;99.90
8593;DHT22;4334;49.982;8.398;2023-03-23T12:57:50;16.90;99.90
8593;DHT22;4334;49.982;8.398;2023-03-23T13:00:22;16.70;99.90
8593;DHT22;4334;49.982;8.398;2023-03-23T13:02:55;19.10;99.90
8593;DHT22;4334;49.982;8.398;2023-03-23T13:05:33;16.60;99.90
8593;DHT22;4334;49.982;8.398;2023-03-23T13:08:05;16.50;99.90
8593;DHT22;4334;49.982;8.398;2023-03-23T13:10:36;16.60;99.90
8593;DHT22;4334;49.982;8.398;2023-03-23T13:13:13;16.70;99.90
8593;DHT22;4334;49.982;8.398;2023-03-23T13:15:48;16.80;99.90
8593;DHT22;4334;49.982;8.398;2023-03-23T13:18:19;16.70;99.90
8593;DHT22;4334;49.982;8.398;2023-03-23T13:20:58;16.90;99.90
8593;DHT22;4334;49.982;8.398;2023-03-23T13:23:31;16.80;99.90
8593;DHT22;4334;49.982;8.398;2023-03-23T13:26:01;20.20;99.90
8593;DHT22;4334;49.982;8.398;2023-03-23T13:28:32;16.60;99.90
8593;DHT22;4334;49.982;8.398;2023-03-23T13:31:01;16.40;99.90
8593;DHT22;4334;49.982;8.398;2023-03-23T13:33:31;16.20;99.90
8593;DHT22;4334;49.982;8.398;2023-03-23T13:36:08;16.30;99.90
8593;DHT22;4334;49.982;8.398;2023-03-23T13:38:36;16.10;99.90
8593;DHT22;4334;49.982;8.398;2023-03-23T13:41:08;16.00;99.90
8593;DHT22;4334;49.982;8.398;2023-03-23T13:43:39;15.80;99.90
8593;DHT22;4334;49.982;8.398;2023-03-23T13:46:12;15.60;99.90
8593;DHT22;4334;49.982;8.398;2023-03-23T13:48:44;15.50;99.90
8593;DHT22;4334;49.982;8.398;2023-03-23T13:51:32;15.50;99.90
8593;DHT22;4334;49.982;8.398;2023-03-23T13:54:23;15.30;99.90
8593;DHT22;4334;49.982;8.398;2023-03-23T13:56:54;15.30;99.90
8593;DHT22;4334;49.982;8.398;2023-03-23T13:59:32;15.40;99.90
8593;DHT22;4334;49.982;8.398;2023-03-23T14:02:27;12.20;99.90
8593;DHT22;4334;49.982;8.398;2023-03-23T14:04:55;15.90;99.90
8593;DHT22;4334;49.982;8.398;2023-03-23T14:07:23;16.00;99.90
8593;DHT22;4334;49.982;8.398;2023-03-23T14:09:50;16.10;99.90
8593;DHT22;4334;49.982;8.398;2023-03-23T14:12:19;16.00;99.90
8593;DHT22;4334;49.982;8.398;2023-03-23T14:14:50;17.70;99.90
8593;DHT22;4334;49.982;8.398;2023-03-23T14:17:21;15.80;99.90
8593;DHT22;4334;49.982;8.398;2023-03-23T14:19:49;15.60;99.90
8593;DHT22;4334;49.982;8.398;2023-03-23T14:22:19;15.50;99.90
8593;DHT22;4334;49.982;8.398;2023-03-23T14:24:46;15.50;99.90
8593;DHT22;4334;49.982;8.398;2023-03-23T14:27:14;19.10;99.90
8593;DHT22;4334;49.982;8.398;2023-03-23T14:29:42;15.30;99.90
8593;DHT22;4334;49.982;8.398;2023-03-23T14:32:14;15.30;99.90
8593;DHT22;4334;49.982;8.398;2023-03-23T14:34:42;16.20;99.90
8593;DHT22;4334;49.982;8.398;2023-03-23T14:37:11;15.10;99.90
8593;DHT22;4334;49.982;8.398;2023-03-23T14:39:39;15.20;99.90
8593;DHT22;4334;49.982;8.398;2023-03-23T14:42:10;15.30;99.90
8593;DHT22;4334;49.982;8.398;2023-03-23T14:44:42;15.30;99.90
8593;DHT22;4334;49.982;8.398;2023-03-23T14:47:16;18.90;99.90
8593;DHT22;4334;49.982;8.398;2023-03-23T14:49:46;15.30;99.90
8593;DHT22;4334;49.982;8.398;2023-03-23T14:52:14;15.20;99.90
8593;DHT22;4334;49.982;8.398;2023-03-23T14:54:42;15.20;99.90
8593;DHT22;4334;49.982;8.398;2023-03-23T14:57:14;15.20;99.90
8593;DHT22;4334;49.982;8.398;2023-03-23T14:59:42;15.20;99.90
8593;DHT22;4334;49.982;8.398;2023-03-23T15:02:14;15.30;99.90
8593;DHT22;4334;49.982;8.398;2023-03-23T15:04:45;15.30;99.90
8593;DHT22;4334;49.982;8.398;2023-03-23T15:07:14;15.30;99.90
8593;DHT22;4334;49.982;8.398;2023-03-23T15:09:44;15.40;99.90
8593;DHT22;4334;49.982;8.398;2023-03-23T15:12:20;15.50;99.90
8593;DHT22;4334;49.982;8.398;2023-03-23T15:14:48;15.50;99.90
8593;DHT22;4334;49.982;8.398;2023-03-23T15:17:20;15.40;99.90
8593;DHT22;4334;49.982;8.398;2023-03-23T15:19:48;15.30;99.90
8593;DHT22;4334;49.982;8.398;2023-03-23T15:22:20;15.20;99.90
8593;DHT22;4334;49.982;8.398;2023-03-23T15:24:47;15.30;99.90
8593;DHT22;4334;49.982;8.398;2023-03-23T15:27:17;15.30;99.90
8593;DHT22;4334;49.982;8.398;2023-03-23T15:29:48;15.30;99.90
8593;DHT22;4334;49.982;8.398;2023-03-23T15:32:23;19.20;99.90
8593;DHT22;4334;49.982;8.398;2023-03-23T15:34:50;15.30;99.90
8593;DHT22;4334;49.982;8.398;2023-03-23T15:37:20;15.20;99.90
8593;DHT22;4334;49.982;8.398;2023-03-23T15:39:48;19.00;99.90
8593;DHT22;4334;49.982;8.398;2023-03-23T15:42:24;15.40;99.90
8593;DHT22;4334;49.982;8.398;2023-03-23T15:44:57;15.40;99.90
8593;DHT22;4334;49.982;8.398;2023-03-23T15:47:36;15.30;99.90
8593;DHT22;4334;49.982;8.398;2023-03-23T15:50:09;15.00;99.90
8593;DHT22;4334;49.982;8.398;2023-03-23T15:52:37;14.80;99.90
8593;DHT22;4334;49.982;8.398;2023-03-23T15:55:19;18.30;99.90
8593;DHT22;4334;49.982;8.398;2023-03-23T15:57:47;14.30;99.90
8593;DHT22;4334;49.982;8.398;2023-03-23T16:00:16;14.10;99.90
8593;DHT22;4334;49.982;8.398;2023-03-23T16:02:45;14.00;99.90
8593;DHT22;4334;49.982;8.398;2023-03-23T16:05:13;14.10;99.90
8593;DHT22;4334;49.982;8.398;2023-03-23T16:07:40;13.70;99.90
8593;DHT22;4334;49.982;8.398;2023-03-23T16:10:14;13.60;99.90
8593;DHT22;4334;49.982;8.398;2023-03-23T16:12:42;13.60;99.90
8593;DHT22;4334;49.982;8.398;2023-03-23T16:15:08;13.50;99.90
8593;DHT22;4334;49.982;8.398;2023-03-23T16:17:36;13.60;99.90
8593;DHT22;4334;49.982;8.398;2023-03-23T16:20:10;13.60;99.90
8593;DHT22;4334;49.982;8.398;2023-03-23T16:22:38;13.70;99.90
8593;DHT22;4334;49.982;8.398;2023-03-23T16:25:06;13.80;99.90
8593;DHT22;4334;49.982;8.398;2023-03-23T16:27:33;13.80;99.90
8593;DHT22;4334;49.982;8.398;2023-03-23T16:30:00;13.90;99.90